createdAt,value
2023-02-12T00:04:04.417Z,4.00
2023-02-12T00:09:06.332Z,3.60
2023-02-12T00:14:07.754Z,4.43
2023-02-12T00:19:09.734Z,3.35
2023-02-12T00:24:11.354Z,4.63
2023-02-12T00:29:12.908Z,3.53
2023-02-12T00:34:14.333Z,4.13
2023-02-12T00:39:15.917Z,4.55
2023-02-12T00:44:17.523Z,4.47
2023-02-12T00:49:19.039Z,4.15
2023-02-12T00:54:20.619Z,4.57
2023-02-12T00:59:23.363Z,4.43
2023-02-12T01:04:24.941Z,3.13
2023-02-12T01:09:26.617Z,3.55
2023-02-12T01:14:28.298Z,4.22
2023-02-12T01:19:29.858Z,4.65
2023-02-12T01:24:31.334Z,4.30
2023-02-12T01:29:32.997Z,4.28
2023-02-12T01:34:34.465Z,4.15
2023-02-12T01:39:36.200Z,4.43
2023-02-12T01:44:43.828Z,5.18
2023-02-12T01:49:48.149Z,4.30
2023-02-12T01:54:53.542Z,3.72
2023-02-12T01:59:59.056Z,5.72
2023-02-12T02:05:03.574Z,4.80
2023-02-12T02:10:05.674Z,5.32
2023-02-12T02:15:07.776Z,4.35
2023-02-12T02:20:46.311Z,4.47
2023-02-12T02:25:53.695Z,3.63
2023-02-12T02:31:09.266Z,4.38
2023-02-12T02:36:25.848Z,4.68
2023-02-12T02:41:57.488Z,3.45
2023-02-12T02:47:01.962Z,4.05
2023-02-12T02:52:09.614Z,4.47
2023-02-12T02:57:23.330Z,3.85
2023-02-12T03:02:29.756Z,4.30
2023-02-12T03:07:41.550Z,4.90
2023-02-12T03:12:55.435Z,3.85
2023-02-12T03:17:59.619Z,2.85
2023-02-12T03:23:07.125Z,3.67
2023-02-12T03:28:22.496Z,4.55
2023-02-12T03:33:35.732Z,3.88
2023-02-12T03:38:52.792Z,3.05
2023-02-12T03:44:04.113Z,3.45
2023-02-12T03:49:22.017Z,4.15
2023-02-12T03:54:23.462Z,4.07
2023-02-12T03:59:25.697Z,3.25
2023-02-12T04:04:28.430Z,3.30
2023-02-12T04:09:32.162Z,4.05
2023-02-12T04:14:49.772Z,4.35
2023-02-12T04:20:00.506Z,3.20
2023-02-12T04:25:26.635Z,4.53
2023-02-12T04:30:39.962Z,3.58
2023-02-12T04:35:55.299Z,4.25
2023-02-12T04:40:57.717Z,6.35
2023-02-12T04:45:59.439Z,5.60
2023-02-12T04:51:01.684Z,5.18
2023-02-12T04:56:03.442Z,4.63
2023-02-12T05:01:05.096Z,6.63
2023-02-12T05:06:08.580Z,4.90
2023-02-12T05:11:10.967Z,4.28
2023-02-12T05:16:12.446Z,6.18
2023-02-12T05:21:14.406Z,5.82
2023-02-12T05:26:19.079Z,4.53
2023-02-12T05:31:21.756Z,4.47
2023-02-12T05:36:24.613Z,4.95
2023-02-12T05:41:26.042Z,4.45
2023-02-12T05:46:27.722Z,5.38
2023-02-12T05:51:29.205Z,5.10
2023-02-12T05:56:33.153Z,5.28
2023-02-12T06:01:40.462Z,6.13
2023-02-12T06:06:42.458Z,6.20
2023-02-12T06:11:44.242Z,5.00
2023-02-12T06:16:47.962Z,4.20
2023-02-12T06:21:49.466Z,5.15
2023-02-12T06:26:51.741Z,6.65
2023-02-12T06:31:53.358Z,5.88
2023-02-12T06:36:55.033Z,6.53
2023-02-12T06:41:56.554Z,6.53
2023-02-12T06:46:58.002Z,4.43
2023-02-12T06:52:01.684Z,6.43
2023-02-12T06:57:05.001Z,6.28
2023-02-12T07:02:07.564Z,6.13
2023-02-12T07:07:09.022Z,5.63
2023-02-12T07:12:10.517Z,6.15
2023-02-12T07:17:11.893Z,4.50
2023-02-12T07:22:13.337Z,4.93
2023-02-12T07:27:15.150Z,4.50
2023-02-12T07:32:16.667Z,4.97
2023-02-12T07:37:18.122Z,6.30
2023-02-12T07:42:19.535Z,3.78
2023-02-12T07:47:21.083Z,3.80
2023-02-12T07:52:22.641Z,5.60
2023-02-12T07:57:24.148Z,4.60
2023-02-12T08:02:25.745Z,3.80
2023-02-12T08:07:27.307Z,5.30
2023-02-12T08:12:28.968Z,6.18
2023-02-12T08:17:30.507Z,4.78
2023-02-12T08:22:32.130Z,4.47
2023-02-12T08:27:33.653Z,4.40
2023-02-12T08:32:35.388Z,4.85
2023-02-12T08:37:37.081Z,4.82
2023-02-12T08:42:38.634Z,6.20
2023-02-12T08:47:40.247Z,6.18
2023-02-12T08:52:43.722Z,6.22
2023-02-12T08:57:45.531Z,7.95
2023-02-12T09:02:48.890Z,6.28
2023-02-12T09:07:53.582Z,7.18
2023-02-12T09:12:55.036Z,9.13
2023-02-12T09:17:56.786Z,9.52
2023-02-12T09:22:59.421Z,8.88
2023-02-12T09:28:04.003Z,8.40
2023-02-12T09:33:08.103Z,8.20
2023-02-12T09:38:09.854Z,8.02
2023-02-12T09:43:45.684Z,9.27
2023-02-12T09:49:01.913Z,10.27
2023-02-12T09:54:13.366Z,9.07
2023-02-12T09:59:27.922Z,7.45
2023-02-12T10:04:29.537Z,8.88
2023-02-12T10:10:12.152Z,10.02
2023-02-12T10:15:29.194Z,10.85
2023-02-12T10:20:41.508Z,9.65
2023-02-12T10:25:57.869Z,10.98
2023-02-12T10:31:06.268Z,12.55
2023-02-12T10:36:39.069Z,11.73
2023-02-12T10:41:49.631Z,11.65
2023-02-12T10:46:51.341Z,10.90
2023-02-12T10:52:01.439Z,11.85
2023-02-12T10:57:18.396Z,11.55
2023-02-12T11:02:26.795Z,10.73
2023-02-12T11:07:28.874Z,11.40
2023-02-12T11:12:35.995Z,10.23
2023-02-12T11:17:43.514Z,11.00
2023-02-12T11:22:52.151Z,9.95
2023-02-12T11:28:13.937Z,10.77
2023-02-12T11:33:23.826Z,11.18
2023-02-12T11:38:29.905Z,12.48
2023-02-12T11:43:34.021Z,11.88
2023-02-12T11:48:41.142Z,11.55
2023-02-12T11:53:47.441Z,13.35
2023-02-12T11:58:51.019Z,10.75
2023-02-12T12:04:04.977Z,10.95
2023-02-12T12:09:09.520Z,8.70
2023-02-12T12:14:29.533Z,9.32
2023-02-12T12:19:57.835Z,9.95
2023-02-12T12:25:24.245Z,8.90
2023-02-12T12:30:34.449Z,10.10
2023-02-12T12:36:08.281Z,7.63
2023-02-12T12:41:21.647Z,11.13
2023-02-12T12:46:41.892Z,11.60
2023-02-12T12:52:02.849Z,10.75
2023-02-12T12:57:04.290Z,8.70
2023-02-12T13:02:33.043Z,8.23
2023-02-12T13:07:34.507Z,9.35
2023-02-12T13:13:09.375Z,8.35
2023-02-12T13:18:31.087Z,9.05
2023-02-12T13:23:42.810Z,9.30
2023-02-12T13:28:49.783Z,10.32
2023-02-12T13:34:00.738Z,7.90
2023-02-12T13:39:18.510Z,7.20
2023-02-12T13:44:32.144Z,7.82
2023-02-12T13:49:45.617Z,6.95
2023-02-12T13:54:49.793Z,6.57
2023-02-12T13:59:56.076Z,8.00
2023-02-12T14:05:03.395Z,6.50
2023-02-12T14:10:05.388Z,7.30
2023-02-12T14:15:26.770Z,6.55
2023-02-12T14:20:36.449Z,7.25
2023-02-12T14:25:48.363Z,7.90
2023-02-12T14:31:15.893Z,5.85
2023-02-12T14:36:32.260Z,6.72
2023-02-12T14:41:36.904Z,7.07
2023-02-12T14:46:38.583Z,5.57
2023-02-12T14:51:46.849Z,5.53
2023-02-12T14:56:50.462Z,6.65
2023-02-12T15:01:53.458Z,5.57
2023-02-12T15:07:05.028Z,4.68
2023-02-12T15:12:15.554Z,4.25
2023-02-12T15:17:27.707Z,5.25
2023-02-12T15:22:36.115Z,4.80
2023-02-12T15:27:41.496Z,5.18
2023-02-12T15:32:43.704Z,6.63
2023-02-12T15:37:46.645Z,5.30
2023-02-12T15:42:57.118Z,5.03
2023-02-12T15:48:18.555Z,6.70
2023-02-12T15:53:22.967Z,5.70
2023-02-12T15:58:30.746Z,6.07
2023-02-12T16:03:37.784Z,5.07
2023-02-12T16:08:45.779Z,4.57
2023-02-12T16:13:50.655Z,3.80
2023-02-12T16:19:26.208Z,2.83
2023-02-12T16:24:31.873Z,2.93
2023-02-12T16:29:36.820Z,2.53
2023-02-12T16:34:38.856Z,3.53
2023-02-12T16:40:14.282Z,2.42
2023-02-12T16:45:25.163Z,2.08
2023-02-12T16:50:29.009Z,2.60
2023-02-12T16:55:31.345Z,4.05
2023-02-12T17:00:32.877Z,4.40
2023-02-12T17:05:34.544Z,3.85
2023-02-12T17:10:35.983Z,4.95
2023-02-12T17:15:42.615Z,4.43
2023-02-12T17:20:47.783Z,3.03
2023-02-12T17:25:49.491Z,2.40
2023-02-12T17:30:52.530Z,2.60
2023-02-12T17:35:54.299Z,3.45
2023-02-12T17:40:56.227Z,2.75
2023-02-12T17:45:57.972Z,3.28
2023-02-12T17:50:59.716Z,3.63
2023-02-12T17:56:01.310Z,3.03
2023-02-12T18:01:07.411Z,3.10
2023-02-12T18:06:09.991Z,2.83
2023-02-12T18:11:11.592Z,2.10
2023-02-12T18:16:14.560Z,2.78
2023-02-12T18:21:16.738Z,2.47
2023-02-12T18:26:18.926Z,2.50
2023-02-12T18:31:21.156Z,2.20
2023-02-12T18:36:22.786Z,2.42
2023-02-12T18:41:27.327Z,2.75
2023-02-12T18:46:30.486Z,2.05
2023-02-12T18:51:32.105Z,2.63
2023-02-12T18:56:39.283Z,2.88
2023-02-12T19:01:41.326Z,2.60
2023-02-12T19:06:46.334Z,2.85
2023-02-12T19:11:50.359Z,2.80
2023-02-12T19:16:52.417Z,2.85
2023-02-12T19:21:53.924Z,4.85
2023-02-12T19:26:55.459Z,3.67
2023-02-12T19:31:57.055Z,2.35
2023-02-12T19:36:58.688Z,3.58
2023-02-12T19:42:00.184Z,3.00
2023-02-12T19:47:01.741Z,2.38
2023-02-12T19:52:03.350Z,2.17
2023-02-12T19:57:04.794Z,1.80
2023-02-12T20:02:06.593Z,2.08
2023-02-12T20:07:08.708Z,2.63
2023-02-12T20:12:10.237Z,1.52
2023-02-12T20:17:11.793Z,1.83
2023-02-12T20:22:13.224Z,2.20
2023-02-12T20:27:15.309Z,2.45
2023-02-12T20:32:16.881Z,1.60
2023-02-12T20:37:18.640Z,2.58
2023-02-12T20:42:20.141Z,1.80
2023-02-12T20:47:21.680Z,2.67
2023-02-12T20:52:24.449Z,2.40
2023-02-12T20:57:25.911Z,3.40
2023-02-12T21:02:27.859Z,2.10
2023-02-12T21:07:29.411Z,1.92
2023-02-12T21:12:30.935Z,2.72
2023-02-12T21:17:33.298Z,3.58
2023-02-12T21:22:35.717Z,2.88
2023-02-12T21:27:37.144Z,3.40
2023-02-12T21:32:38.729Z,4.07
2023-02-12T21:37:40.273Z,2.50
2023-02-12T21:42:41.696Z,3.47
2023-02-12T21:47:43.219Z,3.10
2023-02-12T21:52:44.784Z,2.63
2023-02-12T21:57:46.231Z,2.80
2023-02-12T22:02:48.064Z,3.38
2023-02-12T22:07:50.659Z,3.50
2023-02-12T22:12:52.221Z,4.43
2023-02-12T22:17:53.876Z,3.97
2023-02-12T22:22:55.548Z,4.97
2023-02-12T22:27:57.018Z,4.20
2023-02-12T22:32:58.605Z,4.28
2023-02-12T22:38:00.136Z,4.00
2023-02-12T22:43:01.608Z,3.42
2023-02-12T22:48:03.546Z,3.60
2023-02-12T22:53:05.353Z,4.38
2023-02-12T22:58:06.876Z,3.63
2023-02-12T23:03:08.481Z,3.83
2023-02-12T23:08:10.028Z,4.28
2023-02-12T23:13:18.574Z,3.28
2023-02-12T23:18:26.284Z,4.82
2023-02-12T23:23:28.190Z,3.75
2023-02-12T23:28:30.995Z,3.30
2023-02-12T23:33:32.598Z,3.80
2023-02-12T23:38:34.041Z,3.05
2023-02-12T23:43:35.615Z,3.58
2023-02-12T23:48:37.121Z,3.65
2023-02-12T23:53:38.641Z,3.65
2023-02-12T23:58:41.199Z,3.13
